This is the latest recevied weather packets stored in our database for station/object G0AMO. If no packets are shown the sender has not sent any weather packets the latest 10 day(s).
| Time | Temp. | Humidity | Pressure | Rain* | Wind** | Luminosity | Snow |
|---|---|---|---|---|---|---|---|
| 1777524006 | 8.33° C | 77% | 1021 hPa | 0 mm | - | 0 W/m² | - |
| 1777521904 | 8.89° C | 76% | 1022.4 hPa | 0 mm | - | 0 W/m² | - |
| 1777519205 | 8.89° C | 76% | 1022.7 hPa | 0 mm | - | 0 W/m² | - |
| 1777518304 | 8.89° C | 75% | 1021.3 hPa | 0 mm | - | 0 W/m² | - |
| 1777517704 | 9.44° C | 75% | 1021.3 hPa | 0 mm | - | 0 W/m² | - |
| 1777515304 | 9.44° C | 74% | 1022.4 hPa | 0 mm | - | 0 W/m² | - |
| 1777514104 | 9.44° C | 73% | 1022.7 hPa | 0 mm | - | 0 W/m² | - |
| 1777511105 | 9.44° C | 70% | 1022.1 hPa | 0 mm | - | 0 W/m² | - |
| 1777507204 | 10° C | 64% | 1022 hPa | 0 mm | - | 0 W/m² | - |
| 1777499705 | 11.11° C | 56% | 1022 hPa | 0 mm | - | 0 W/m² | - |
| 1777495804 | 11.67° C | 52% | 1022.4 hPa | 0 mm | - | 0 W/m² | - |
| 1777491604 | 12.78° C | 47% | 1021.7 hPa | 0 mm | - | 0 W/m² | - |
| 1777490404 | 13.33° C | 46% | 1021.7 hPa | 0 mm | - | 0 W/m² | - |
| 1777489504 | 13.89° C | 45% | 1022.4 hPa | 0 mm | - | 0 W/m² | - |
| 1777489204 | 13.89° C | 45% | 1022 hPa | 0 mm | - | 0 W/m² | - |
| 1777488004 | 14.44° C | 45% | 1022 hPa | 0 mm | - | 0 W/m² | - |
| 1777487704 | 14.44° C | 45% | 1022.4 hPa | 0 mm | - | 0 W/m² | - |
| 1777486805 | 14.44° C | 45% | 1021 hPa | 0 mm | - | 0 W/m² | - |
| 1777484104 | 16.11° C | 43% | 1021 hPa | 0 mm | - | 178 W/m² | - |
| 1777480204 | 17.22° C | 39% | 1021.7 hPa | 0 mm | - | 470 W/m² | - |
| 1777475106 | 18.89° C | 31% | 1021 hPa | 0 mm | - | 881 W/m² | - |
| 1777474205 | 18.33° C | 35% | 1021.3 hPa | 0 mm | - | 948 W/m² | - |
| 1777472704 | 18.89° C | 29% | 1022.4 hPa | 0 mm | - | 1049 W/m² | - |
| 1777471804 | 18.33° C | 30% | 1022.4 hPa | 0 mm | - | 1103 W/m² | - |
| 1777471504 | 18.89° C | 30% | 1022.4 hPa | 0 mm | - | 1120 W/m² | - |
* Rain latest hour (hover to see other rain measurements)
** Current wind speed in m/s (hover to see current wind gust speed)